RRS Discovery — 2FGX5 — position and weather

sailwx.info

Track history (hours):
 
Tides and Currents Weather Stations Pressure Air Temp Water Temp Dewpoint Dewpoint Depression Visibility Wind Speed Wind Dir Waves Ship Positions

Oceanographic research ship RRS Discovery (UK)

Last reported at 2019-Sep-22 02:00 UTC. Time now 2019-Sep-22 02:26 UTC.
Position N 59°51' W 007°07'.

Length 100 m; draft 6.6 m.

Type: Other ship. MMSI: 235091165.

Date/timePositionNaut miles runAvg speedWind from/ knotsBaromVisibWave heightAir tempDewpointWater temp
2019-Sep-22 02:00N 59°51' W 007°07'1 1.5
2019-Sep-22 01:30N 59°51' W 007°09'2 2.2
2019-Sep-22 00:24N 59°51' W 007°04'0 0.7
2019-Sep-22 00:00N 59°51' W 007°04'1 2.0
2019-Sep-21 23:30N 59°51' W 007°06'1 2.5
2019-Sep-21 23:00N 59°51' W 007°08'0 0.3
2019-Sep-21 22:25N 59°51' W 007°08'1 1.7
2019-Sep-21 21:49N 59°51' W 007°06'1 1.6
2019-Sep-21 21:03N 59°52' W 007°04'0 2.0
2019-Sep-21 21:00N 59°51' W 007°04'1 2.3
2019-Sep-21 20:25N 59°51' W 007°07'1 0.7
2019-Sep-21 18:20N 59°52' W 007°04'0 1.0
2019-Sep-21 18:00N 59°52' W 007°05'2 3.1
2019-Sep-21 17:30N 59°51' W 007°08'1 2.0
2019-Sep-21 17:00N 59°51' W 007°10'0 0.1
2019-Sep-21 16:29N 59°51' W 007°10'0 0.1
2019-Sep-21 16:00N 59°51' W 007°10'0 0.0
2019-Sep-21 14:46N 59°51' W 007°10'0 0.1
2019-Sep-21 14:25N 59°51' W 007°09'3 7.1
2019-Sep-21 14:00N 59°51' W 007°15'4 8.9
2019-Sep-21 13:30N 59°49' W 007°23'3 5.4
2019-Sep-21 13:00N 59°49' W 007°29'17 6.4
2019-Sep-21 10:25N 59°55' W 006°57'5 9.2
2019-Sep-21 09:50N 59°50' W 006°54'2 6.6
2019-Sep-21 09:30N 59°49' W 006°58'3 6.5
2019-Sep-21 09:00N 59°48' W 007°05'3 6.5
2019-Sep-21 08:30N 59°47' W 007°11'3 6.9
2019-Sep-21 08:00N 59°46' W 007°17'3 6.9
2019-Sep-21 07:30N 59°45' W 007°24'15 5.2
2019-Sep-21 04:33N 59°51' W 006°56'0 7.0
2019-Sep-21 04:30N 59°51' W 006°56'3 5.2
2019-Sep-21 04:00N 59°52' W 007°01'2 1.8
2019-Sep-21 02:46N 59°53' W 007°05'0 0.0
2019-Sep-21 02:08N 59°53' W 007°05'0 0.1
2019-Sep-21 00:12N 59°53' W 007°04'0 0.1
2019-Sep-20 23:37N 59°53' W 007°04'0 0.2
2019-Sep-20 23:20N 59°53' W 007°04'3 0.5
2019-Sep-20 16:59N 59°51' W 007°09'0 0.1
2019-Sep-20 13:34N 59°51' W 007°10'0 0.0
2019-Sep-20 13:30N 59°51' W 007°10'1 1.5
2019-Sep-20 12:55N 59°51' W 007°08'0 0.0
2019-Sep-20 12:26N 59°51' W 007°08'0 0.0
2019-Sep-20 12:00N 59°51' W 007°08'0 0.0
2019-Sep-20 11:30N 59°51' W 007°08'0 0.0
2019-Sep-20 11:00N 59°51' W 007°08'0 0.0
2019-Sep-20 10:30N 59°51' W 007°08'0 0.0
2019-Sep-20 09:57N 59°51' W 007°08'0 0.1
2019-Sep-20 09:30N 59°51' W 007°08'0 0.0
2019-Sep-20 09:00N 59°51' W 007°08'1 1.0
2019-Sep-20 08:07N 59°51' W 007°10'0 0.0
2019-Sep-20 07:50N 59°51' W 007°10'0 0.0
2019-Sep-20 07:20N 59°51' W 007°10'0 0.0
2019-Sep-20 07:00N 59°51' W 007°10'0 0.1
2019-Sep-20 06:30N 59°51' W 007°09'3 5.3
2019-Sep-20 06:00N 59°50' W 007°14'4 8.5
2019-Sep-20 05:30N 59°49' W 007°22'0 0.4
2019-Sep-20 05:00N 59°49' W 007°23'0 0.0
2019-Sep-20 04:30N 59°49' W 007°23'0 0.0
2019-Sep-20 04:00N 59°49' W 007°23'0 0.0
2019-Sep-20 03:30N 59°49' W 007°23'0 0.6
2019-Sep-20 03:00N 59°49' W 007°22'0 0.4
2019-Sep-20 02:30N 59°49' W 007°22'0 0.1
2019-Sep-20 01:59N 59°49' W 007°22'0 0.3
2019-Sep-20 01:30N 59°49' W 007°21'0 0.2
2019-Sep-20 01:00N 59°49' W 007°21'0 0.1
2019-Sep-20 00:30N 59°49' W 007°21'0 0.1
2019-Sep-20 00:00N 59°49' W 007°21'0 0.2
2019-Sep-19 23:30N 59°49' W 007°21'0 0.1
2019-Sep-19 22:55N 59°49' W 007°22'0 0.2
2019-Sep-19 22:30N 59°49' W 007°22'0 0.0
2019-Sep-19 21:57N 59°49' W 007°22'0 0.1
2019-Sep-19 21:27N 59°49' W 007°22'0 0.1
2019-Sep-19 21:00N 59°49' W 007°22'0 0.1
2019-Sep-19 20:30N 59°49' W 007°22'0 0.2
2019-Sep-19 20:00N 59°49' W 007°21'0 0.1
2019-Sep-19 19:29N 59°49' W 007°21'0 0.2
2019-Sep-19 19:00N 59°49' W 007°21'0 0.1
2019-Sep-19 18:27N 59°49' W 007°21'0 0.2
2019-Sep-19 17:59N 59°49' W 007°21'0 0.1
2019-Sep-19 17:05N 59°49' W 007°22'0 0.1
2019-Sep-19 14:58N 59°49' W 007°22'0 1.1
2019-Sep-19 14:30N 59°49' W 007°23'0 0.0
2019-Sep-19 13:50N 59°49' W 007°23'0 0.0
2019-Sep-19 13:09N 59°49' W 007°23'0 0.0
2019-Sep-19 13:00N 59°49' W 007°23'0 0.2
2019-Sep-19 12:20N 59°49' W 007°23'0 0.0
2019-Sep-19 12:00N 59°49' W 007°23'0 0.1
2019-Sep-19 11:30N 59°49' W 007°23'0 0.2
2019-Sep-19 10:59N 59°49' W 007°23'3 6.2
2019-Sep-19 10:27N 59°50' W 007°16'6 8.6
2019-Sep-19 09:46N 59°51' W 007°05'1 0.4
2019-Sep-19 07:18N 59°51' W 007°04'0 0.0
2019-Sep-19 06:52N 59°51' W 007°04'0 0.0
2019-Sep-19 06:24N 59°51' W 007°04'0 0.0
2019-Sep-19 05:38N 59°51' W 007°04'0 0.0
2019-Sep-19 05:30N 59°51' W 007°04'0 0.0
2019-Sep-19 04:41N 59°51' W 007°04'0 0.0
2019-Sep-19 04:25N 59°51' W 007°04'0 0.1
2019-Sep-19 03:42N 59°51' W 007°04'1 4.7
2019-Sep-19 03:29N 59°51' W 007°06'1 0.8
2019-Sep-19 02:34N 59°51' W 007°07'0 0.2
2019-Sep-19 01:00N 59°51' W 007°08'0 0.1
2019-Sep-19 00:23N 59°51' W 007°08'0 0.1
2019-Sep-18 23:39N 59°51' W 007°08'0 0.2
2019-Sep-18 23:29N 59°51' W 007°08'0 0.2
2019-Sep-18 23:00N 59°51' W 007°08'0 0.1
2019-Sep-18 22:30N 59°51' W 007°08'0 0.1
2019-Sep-18 21:58N 59°51' W 007°08'0 0.1
2019-Sep-18 21:28N 59°51' W 007°08'0 0.2
2019-Sep-18 20:21N 59°51' W 007°08'  
Track history (hours):
 
Tides and Currents Weather Stations Pressure Air Temp Water Temp Dewpoint Dewpoint Depression Visibility Wind Speed Wind Dir Waves Ship Positions

Oceanographic research ship RRS Discovery (UK)

Last reported at 2019-Sep-22 02:00 UTC. Time now 2019-Sep-22 02:26 UTC.
Position N 59°51' W 007°07'.

Length 100 m; draft 6.6 m.

Type: Other ship. MMSI: 235091165.

Date/timePositionNaut miles runAvg speedWind from/ knotsBaromVisibWave heightAir tempDewpointWater temp
2019-Sep-22 02:00N 59°51' W 007°07'1 1.5
2019-Sep-22 01:30N 59°51' W 007°09'2 2.2
2019-Sep-22 00:24N 59°51' W 007°04'0 0.7
2019-Sep-22 00:00N 59°51' W 007°04'1 2.0
2019-Sep-21 23:30N 59°51' W 007°06'1 2.5
2019-Sep-21 23:00N 59°51' W 007°08'0 0.3
2019-Sep-21 22:25N 59°51' W 007°08'1 1.7
2019-Sep-21 21:49N 59°51' W 007°06'1 1.6
2019-Sep-21 21:03N 59°52' W 007°04'0 2.0
2019-Sep-21 21:00N 59°51' W 007°04'1 2.3
2019-Sep-21 20:25N 59°51' W 007°07'1 0.7
2019-Sep-21 18:20N 59°52' W 007°04'0 1.0
2019-Sep-21 18:00N 59°52' W 007°05'2 3.1
2019-Sep-21 17:30N 59°51' W 007°08'1 2.0
2019-Sep-21 17:00N 59°51' W 007°10'0 0.1
2019-Sep-21 16:29N 59°51' W 007°10'0 0.1
2019-Sep-21 16:00N 59°51' W 007°10'0 0.0
2019-Sep-21 14:46N 59°51' W 007°10'0 0.1
2019-Sep-21 14:25N 59°51' W 007°09'3 7.1
2019-Sep-21 14:00N 59°51' W 007°15'4 8.9
2019-Sep-21 13:30N 59°49' W 007°23'3 5.4
2019-Sep-21 13:00N 59°49' W 007°29'17 6.4
2019-Sep-21 10:25N 59°55' W 006°57'5 9.2
2019-Sep-21 09:50N 59°50' W 006°54'2 6.6
2019-Sep-21 09:30N 59°49' W 006°58'3 6.5
2019-Sep-21 09:00N 59°48' W 007°05'3 6.5
2019-Sep-21 08:30N 59°47' W 007°11'3 6.9
2019-Sep-21 08:00N 59°46' W 007°17'3 6.9
2019-Sep-21 07:30N 59°45' W 007°24'15 5.2
2019-Sep-21 04:33N 59°51' W 006°56'0 7.0
2019-Sep-21 04:30N 59°51' W 006°56'3 5.2
2019-Sep-21 04:00N 59°52' W 007°01'2 1.8
2019-Sep-21 02:46N 59°53' W 007°05'0 0.0
2019-Sep-21 02:08N 59°53' W 007°05'0 0.1
2019-Sep-21 00:12N 59°53' W 007°04'0 0.1
2019-Sep-20 23:37N 59°53' W 007°04'0 0.2
2019-Sep-20 23:20N 59°53' W 007°04'3 0.5
2019-Sep-20 16:59N 59°51' W 007°09'0 0.1
2019-Sep-20 13:34N 59°51' W 007°10'0 0.0
2019-Sep-20 13:30N 59°51' W 007°10'1 1.5
2019-Sep-20 12:55N 59°51' W 007°08'0 0.0
2019-Sep-20 12:26N 59°51' W 007°08'0 0.0
2019-Sep-20 12:00N 59°51' W 007°08'0 0.0
2019-Sep-20 11:30N 59°51' W 007°08'0 0.0
2019-Sep-20 11:00N 59°51' W 007°08'0 0.0
2019-Sep-20 10:30N 59°51' W 007°08'0 0.0
2019-Sep-20 09:57N 59°51' W 007°08'0 0.1
2019-Sep-20 09:30N 59°51' W 007°08'0 0.0
2019-Sep-20 09:00N 59°51' W 007°08'1 1.0
2019-Sep-20 08:07N 59°51' W 007°10'0 0.0
2019-Sep-20 07:50N 59°51' W 007°10'0 0.0
2019-Sep-20 07:20N 59°51' W 007°10'0 0.0
2019-Sep-20 07:00N 59°51' W 007°10'0 0.1
2019-Sep-20 06:30N 59°51' W 007°09'3 5.3
2019-Sep-20 06:00N 59°50' W 007°14'4 8.5
2019-Sep-20 05:30N 59°49' W 007°22'0 0.4
2019-Sep-20 05:00N 59°49' W 007°23'0 0.0
2019-Sep-20 04:30N 59°49' W 007°23'0 0.0
2019-Sep-20 04:00N 59°49' W 007°23'0 0.0
2019-Sep-20 03:30N 59°49' W 007°23'0 0.6
2019-Sep-20 03:00N 59°49' W 007°22'0 0.4
2019-Sep-20 02:30N 59°49' W 007°22'0 0.1
2019-Sep-20 01:59N 59°49' W 007°22'0 0.3
2019-Sep-20 01:30N 59°49' W 007°21'0 0.2
2019-Sep-20 01:00N 59°49' W 007°21'0 0.1
2019-Sep-20 00:30N 59°49' W 007°21'0 0.1
2019-Sep-20 00:00N 59°49' W 007°21'0 0.2
2019-Sep-19 23:30N 59°49' W 007°21'0 0.1
2019-Sep-19 22:55N 59°49' W 007°22'0 0.2
2019-Sep-19 22:30N 59°49' W 007°22'0 0.0
2019-Sep-19 21:57N 59°49' W 007°22'0 0.1
2019-Sep-19 21:27N 59°49' W 007°22'0 0.1
2019-Sep-19 21:00N 59°49' W 007°22'0 0.1
2019-Sep-19 20:30N 59°49' W 007°22'0 0.2
2019-Sep-19 20:00N 59°49' W 007°21'0 0.1
2019-Sep-19 19:29N 59°49' W 007°21'0 0.2
2019-Sep-19 19:00N 59°49' W 007°21'0 0.1
2019-Sep-19 18:27N 59°49' W 007°21'0 0.2
2019-Sep-19 17:59N 59°49' W 007°21'0 0.1
2019-Sep-19 17:05N 59°49' W 007°22'0 0.1
2019-Sep-19 14:58N 59°49' W 007°22'0 1.1
2019-Sep-19 14:30N 59°49' W 007°23'0 0.0
2019-Sep-19 13:50N 59°49' W 007°23'0 0.0
2019-Sep-19 13:09N 59°49' W 007°23'0 0.0
2019-Sep-19 13:00N 59°49' W 007°23'0 0.2
2019-Sep-19 12:20N 59°49' W 007°23'0 0.0
2019-Sep-19 12:00N 59°49' W 007°23'0 0.1
2019-Sep-19 11:30N 59°49' W 007°23'0 0.2
2019-Sep-19 10:59N 59°49' W 007°23'3 6.2
2019-Sep-19 10:27N 59°50' W 007°16'6 8.6
2019-Sep-19 09:46N 59°51' W 007°05'1 0.4
2019-Sep-19 07:18N 59°51' W 007°04'0 0.0
2019-Sep-19 06:52N 59°51' W 007°04'0 0.0
2019-Sep-19 06:24N 59°51' W 007°04'0 0.0
2019-Sep-19 05:38N 59°51' W 007°04'0 0.0
2019-Sep-19 05:30N 59°51' W 007°04'0 0.0
2019-Sep-19 04:41N 59°51' W 007°04'0 0.0
2019-Sep-19 04:25N 59°51' W 007°04'0 0.1
2019-Sep-19 03:42N 59°51' W 007°04'1 4.7
2019-Sep-19 03:29N 59°51' W 007°06'1 0.8
2019-Sep-19 02:34N 59°51' W 007°07'0 0.2
2019-Sep-19 01:00N 59°51' W 007°08'0 0.1
2019-Sep-19 00:23N 59°51' W 007°08'0 0.1
2019-Sep-18 23:39N 59°51' W 007°08'0 0.2
2019-Sep-18 23:29N 59°51' W 007°08'0 0.2
2019-Sep-18 23:00N 59°51' W 007°08'0 0.1
2019-Sep-18 22:30N 59°51' W 007°08'0 0.1
2019-Sep-18 21:58N 59°51' W 007°08'0 0.1
2019-Sep-18 21:28N 59°51' W 007°08'0 0.2
2019-Sep-18 20:21N 59°51' W 007°08'  

Dump ship's entire track history